sensor_id;sensor_type;location;lat;lon;timestamp;temperature;humidity
42141;DHT22;27809;51.864;5.646;2022-09-27T00:00:27;10.10;99.90
42141;DHT22;27809;51.864;5.646;2022-09-27T00:02:53;10.10;99.90
42141;DHT22;27809;51.864;5.646;2022-09-27T00:05:18;10.10;99.90
42141;DHT22;27809;51.864;5.646;2022-09-27T00:07:44;10.00;99.90
42141;DHT22;27809;51.864;5.646;2022-09-27T00:10:11;10.00;99.90
42141;DHT22;27809;51.864;5.646;2022-09-27T00:12:37;10.00;99.90
42141;DHT22;27809;51.864;5.646;2022-09-27T00:15:04;10.00;99.90
42141;DHT22;27809;51.864;5.646;2022-09-27T00:17:29;10.00;99.90
42141;DHT22;27809;51.864;5.646;2022-09-27T00:19:58;9.90;99.90
42141;DHT22;27809;51.864;5.646;2022-09-27T00:22:24;9.90;99.90
42141;DHT22;27809;51.864;5.646;2022-09-27T00:24:50;9.80;99.90
42141;DHT22;27809;51.864;5.646;2022-09-27T00:27:16;9.80;99.90
42141;DHT22;27809;51.864;5.646;2022-09-27T00:29:42;9.80;99.90
42141;DHT22;27809;51.864;5.646;2022-09-27T00:32:09;9.80;99.90
42141;DHT22;27809;51.864;5.646;2022-09-27T00:34:34;9.70;99.90
42141;DHT22;27809;51.864;5.646;2022-09-27T00:37:00;9.80;99.90
42141;DHT22;27809;51.864;5.646;2022-09-27T00:39:26;9.80;99.90
42141;DHT22;27809;51.864;5.646;2022-09-27T00:41:51;9.80;99.90
42141;DHT22;27809;51.864;5.646;2022-09-27T00:49:38;9.80;99.90
42141;DHT22;27809;51.864;5.646;2022-09-27T00:52:09;9.80;99.90
42141;DHT22;27809;51.864;5.646;2022-09-27T00:54:37;9.90;99.90
42141;DHT22;27809;51.864;5.646;2022-09-27T00:57:05;9.80;99.90
42141;DHT22;27809;51.864;5.646;2022-09-27T00:59:34;9.90;99.90
42141;DHT22;27809;51.864;5.646;2022-09-27T01:02:04;9.90;99.90
42141;DHT22;27809;51.864;5.646;2022-09-27T01:04:31;9.90;99.90
42141;DHT22;27809;51.864;5.646;2022-09-27T01:06:58;9.90;99.90
42141;DHT22;27809;51.864;5.646;2022-09-27T01:09:24;9.80;99.90
42141;DHT22;27809;51.864;5.646;2022-09-27T01:12:22;9.80;99.90
42141;DHT22;27809;51.864;5.646;2022-09-27T01:20:43;9.80;99.90
42141;DHT22;27809;51.864;5.646;2022-09-27T01:31:08;9.70;99.90
42141;DHT22;27809;51.864;5.646;2022-09-27T01:34:00;9.80;99.90
42141;DHT22;27809;51.864;5.646;2022-09-27T01:36:55;9.70;99.90
42141;DHT22;27809;51.864;5.646;2022-09-27T01:42:35;9.60;99.90
42141;DHT22;27809;51.864;5.646;2022-09-27T01:45:08;9.80;99.90
42141;DHT22;27809;51.864;5.646;2022-09-27T01:47:49;9.70;99.90
42141;DHT22;27809;51.864;5.646;2022-09-27T01:50:31;9.70;99.90
42141;DHT22;27809;51.864;5.646;2022-09-27T01:53:05;9.70;99.90
42141;DHT22;27809;51.864;5.646;2022-09-27T01:55:35;9.70;99.90
42141;DHT22;27809;51.864;5.646;2022-09-27T01:58:09;9.70;99.90
42141;DHT22;27809;51.864;5.646;2022-09-27T02:00:37;9.70;99.90
42141;DHT22;27809;51.864;5.646;2022-09-27T02:03:09;9.60;99.90
42141;DHT22;27809;51.864;5.646;2022-09-27T02:08:28;9.50;99.90
42141;DHT22;27809;51.864;5.646;2022-09-27T02:10:59;9.30;99.90
42141;DHT22;27809;51.864;5.646;2022-09-27T02:16:15;9.50;99.90
42141;DHT22;27809;51.864;5.646;2022-09-27T02:19:07;9.40;99.90
42141;DHT22;27809;51.864;5.646;2022-09-27T02:21:46;9.30;99.90
42141;DHT22;27809;51.864;5.646;2022-09-27T02:24:13;9.20;99.90
42141;DHT22;27809;51.864;5.646;2022-09-27T02:26:48;9.30;99.90
42141;DHT22;27809;51.864;5.646;2022-09-27T02:29:19;9.10;99.90
42141;DHT22;27809;51.864;5.646;2022-09-27T02:31:47;9.00;99.90
42141;DHT22;27809;51.864;5.646;2022-09-27T02:34:21;8.90;99.90
42141;DHT22;27809;51.864;5.646;2022-09-27T02:36:47;9.00;99.90
42141;DHT22;27809;51.864;5.646;2022-09-27T02:39:14;8.90;99.90
42141;DHT22;27809;51.864;5.646;2022-09-27T02:41:39;8.90;99.90
42141;DHT22;27809;51.864;5.646;2022-09-27T02:44:09;8.80;99.90
42141;DHT22;27809;51.864;5.646;2022-09-27T02:46:57;8.70;99.90
42141;DHT22;27809;51.864;5.646;2022-09-27T02:58:13;8.90;99.90
42141;DHT22;27809;51.864;5.646;2022-09-27T03:03:59;8.60;99.90
42141;DHT22;27809;51.864;5.646;2022-09-27T03:06:29;8.90;99.90
42141;DHT22;27809;51.864;5.646;2022-09-27T03:08:56;9.10;99.90
42141;DHT22;27809;51.864;5.646;2022-09-27T03:11:21;9.10;99.90
42141;DHT22;27809;51.864;5.646;2022-09-27T03:13:47;9.00;99.90
42141;DHT22;27809;51.864;5.646;2022-09-27T03:16:13;9.00;99.90
42141;DHT22;27809;51.864;5.646;2022-09-27T03:18:40;9.10;99.90
42141;DHT22;27809;51.864;5.646;2022-09-27T03:21:06;9.00;99.90
42141;DHT22;27809;51.864;5.646;2022-09-27T03:23:31;8.90;99.90
42141;DHT22;27809;51.864;5.646;2022-09-27T03:25:57;8.80;99.90
42141;DHT22;27809;51.864;5.646;2022-09-27T03:28:22;8.70;99.90
42141;DHT22;27809;51.864;5.646;2022-09-27T03:30:50;8.80;99.90
42141;DHT22;27809;51.864;5.646;2022-09-27T03:33:16;8.70;99.90
42141;DHT22;27809;51.864;5.646;2022-09-27T03:35:42;8.60;99.90
42141;DHT22;27809;51.864;5.646;2022-09-27T03:38:08;8.60;99.90
42141;DHT22;27809;51.864;5.646;2022-09-27T03:40:34;8.60;99.90
42141;DHT22;27809;51.864;5.646;2022-09-27T03:43:00;8.50;99.90
42141;DHT22;27809;51.864;5.646;2022-09-27T03:45:26;8.40;99.90
42141;DHT22;27809;51.864;5.646;2022-09-27T03:47:52;8.60;99.90
42141;DHT22;27809;51.864;5.646;2022-09-27T03:50:17;8.70;99.90
42141;DHT22;27809;51.864;5.646;2022-09-27T03:52:43;8.80;99.90
42141;DHT22;27809;51.864;5.646;2022-09-27T03:55:10;9.00;99.90
42141;DHT22;27809;51.864;5.646;2022-09-27T03:57:36;9.20;99.90
42141;DHT22;27809;51.864;5.646;2022-09-27T04:00:02;9.20;99.90
42141;DHT22;27809;51.864;5.646;2022-09-27T04:02:28;9.20;99.90
42141;DHT22;27809;51.864;5.646;2022-09-27T04:04:53;9.20;99.90
42141;DHT22;27809;51.864;5.646;2022-09-27T04:07:19;9.30;99.90
42141;DHT22;27809;51.864;5.646;2022-09-27T04:09:45;9.30;99.90
42141;DHT22;27809;51.864;5.646;2022-09-27T04:12:12;9.30;99.90
42141;DHT22;27809;51.864;5.646;2022-09-27T04:14:37;9.40;99.90
42141;DHT22;27809;51.864;5.646;2022-09-27T04:17:03;9.40;99.90
42141;DHT22;27809;51.864;5.646;2022-09-27T04:19:28;9.30;99.90
42141;DHT22;27809;51.864;5.646;2022-09-27T04:21:54;9.40;99.90
42141;DHT22;27809;51.864;5.646;2022-09-27T04:24:19;9.30;99.90
42141;DHT22;27809;51.864;5.646;2022-09-27T04:26:45;9.30;99.90
42141;DHT22;27809;51.864;5.646;2022-09-27T04:29:11;9.30;99.90
42141;DHT22;27809;51.864;5.646;2022-09-27T04:31:36;9.30;99.90
42141;DHT22;27809;51.864;5.646;2022-09-27T04:34:03;9.40;99.90
42141;DHT22;27809;51.864;5.646;2022-09-27T04:36:29;9.30;99.90
42141;DHT22;27809;51.864;5.646;2022-09-27T04:38:56;9.20;99.90
42141;DHT22;27809;51.864;5.646;2022-09-27T04:41:23;9.20;99.90
42141;DHT22;27809;51.864;5.646;2022-09-27T04:43:50;9.10;99.90
42141;DHT22;27809;51.864;5.646;2022-09-27T04:46:17;9.00;99.90
42141;DHT22;27809;51.864;5.646;2022-09-27T04:48:42;8.90;99.90
42141;DHT22;27809;51.864;5.646;2022-09-27T04:51:09;8.80;99.90
42141;DHT22;27809;51.864;5.646;2022-09-27T04:53:35;8.90;99.90
42141;DHT22;27809;51.864;5.646;2022-09-27T04:56:01;8.90;99.90
42141;DHT22;27809;51.864;5.646;2022-09-27T04:58:31;9.00;99.90
42141;DHT22;27809;51.864;5.646;2022-09-27T05:00:57;8.90;99.90
42141;DHT22;27809;51.864;5.646;2022-09-27T05:03:23;8.90;99.90
42141;DHT22;27809;51.864;5.646;2022-09-27T05:05:49;9.00;99.90
42141;DHT22;27809;51.864;5.646;2022-09-27T05:08:15;9.00;99.90
42141;DHT22;27809;51.864;5.646;2022-09-27T05:10:40;9.10;99.90
42141;DHT22;27809;51.864;5.646;2022-09-27T05:13:06;9.10;99.90
42141;DHT22;27809;51.864;5.646;2022-09-27T05:15:32;9.20;99.90
42141;DHT22;27809;51.864;5.646;2022-09-27T05:17:58;9.20;99.90
42141;DHT22;27809;51.864;5.646;2022-09-27T05:20:24;9.30;99.90
42141;DHT22;27809;51.864;5.646;2022-09-27T05:22:50;9.20;99.90
42141;DHT22;27809;51.864;5.646;2022-09-27T05:25:16;9.20;99.90
42141;DHT22;27809;51.864;5.646;2022-09-27T05:27:42;9.20;99.90
42141;DHT22;27809;51.864;5.646;2022-09-27T05:30:08;9.20;99.90
42141;DHT22;27809;51.864;5.646;2022-09-27T05:32:34;9.10;99.90
42141;DHT22;27809;51.864;5.646;2022-09-27T05:35:00;9.10;99.90
42141;DHT22;27809;51.864;5.646;2022-09-27T05:37:25;9.10;99.90
42141;DHT22;27809;51.864;5.646;2022-09-27T05:39:51;9.10;99.90
42141;DHT22;27809;51.864;5.646;2022-09-27T05:42:17;9.00;99.90
42141;DHT22;27809;51.864;5.646;2022-09-27T05:44:43;9.00;99.90
42141;DHT22;27809;51.864;5.646;2022-09-27T05:47:13;9.00;99.90
42141;DHT22;27809;51.864;5.646;2022-09-27T05:49:38;8.90;99.90
42141;DHT22;27809;51.864;5.646;2022-09-27T05:52:05;9.00;99.90
42141;DHT22;27809;51.864;5.646;2022-09-27T05:54:30;9.00;99.90
42141;DHT22;27809;51.864;5.646;2022-09-27T05:56:57;8.90;99.90
42141;DHT22;27809;51.864;5.646;2022-09-27T05:59:23;8.90;99.90
42141;DHT22;27809;51.864;5.646;2022-09-27T06:01:50;9.00;99.90
42141;DHT22;27809;51.864;5.646;2022-09-27T06:04:16;9.10;99.90
42141;DHT22;27809;51.864;5.646;2022-09-27T06:06:42;9.00;99.90
42141;DHT22;27809;51.864;5.646;2022-09-27T06:09:14;9.00;99.90
42141;DHT22;27809;51.864;5.646;2022-09-27T06:11:41;9.10;99.90
42141;DHT22;27809;51.864;5.646;2022-09-27T06:14:07;9.10;99.90
42141;DHT22;27809;51.864;5.646;2022-09-27T06:16:32;9.20;99.90
42141;DHT22;27809;51.864;5.646;2022-09-27T06:18:58;9.20;99.90
42141;DHT22;27809;51.864;5.646;2022-09-27T06:21:23;9.20;99.90
42141;DHT22;27809;51.864;5.646;2022-09-27T06:23:49;9.20;99.90
42141;DHT22;27809;51.864;5.646;2022-09-27T06:26:15;9.20;99.90
42141;DHT22;27809;51.864;5.646;2022-09-27T06:28:41;9.30;99.90
42141;DHT22;27809;51.864;5.646;2022-09-27T06:31:07;9.30;99.90
42141;DHT22;27809;51.864;5.646;2022-09-27T06:33:34;9.40;99.90
42141;DHT22;27809;51.864;5.646;2022-09-27T06:36:01;9.40;99.90
42141;DHT22;27809;51.864;5.646;2022-09-27T06:38:27;9.40;99.90
42141;DHT22;27809;51.864;5.646;2022-09-27T06:40:52;9.40;99.90
42141;DHT22;27809;51.864;5.646;2022-09-27T06:43:19;9.50;99.90
42141;DHT22;27809;51.864;5.646;2022-09-27T06:45:45;9.60;99.90
42141;DHT22;27809;51.864;5.646;2022-09-27T06:48:12;9.70;99.90
42141;DHT22;27809;51.864;5.646;2022-09-27T06:50:40;9.70;99.90
42141;DHT22;27809;51.864;5.646;2022-09-27T06:53:07;9.90;99.90
42141;DHT22;27809;51.864;5.646;2022-09-27T06:55:34;10.00;99.90
42141;DHT22;27809;51.864;5.646;2022-09-27T06:58:00;10.10;99.90
42141;DHT22;27809;51.864;5.646;2022-09-27T07:00:48;10.20;99.90
42141;DHT22;27809;51.864;5.646;2022-09-27T07:03:14;10.20;99.90
42141;DHT22;27809;51.864;5.646;2022-09-27T07:05:40;10.20;99.90
42141;DHT22;27809;51.864;5.646;2022-09-27T07:08:10;10.10;99.90
42141;DHT22;27809;51.864;5.646;2022-09-27T07:10:37;10.10;99.90
42141;DHT22;27809;51.864;5.646;2022-09-27T07:13:04;9.90;99.90
42141;DHT22;27809;51.864;5.646;2022-09-27T07:15:31;9.80;99.90
42141;DHT22;27809;51.864;5.646;2022-09-27T07:17:58;9.90;99.90
42141;DHT22;27809;51.864;5.646;2022-09-27T07:20:24;9.90;99.90
42141;DHT22;27809;51.864;5.646;2022-09-27T07:22:50;9.80;99.90
42141;DHT22;27809;51.864;5.646;2022-09-27T07:25:16;9.70;99.90
42141;DHT22;27809;51.864;5.646;2022-09-27T07:27:42;9.80;99.90
42141;DHT22;27809;51.864;5.646;2022-09-27T07:30:09;9.80;99.90
42141;DHT22;27809;51.864;5.646;2022-09-27T07:32:34;9.90;99.90
42141;DHT22;27809;51.864;5.646;2022-09-27T07:35:02;9.80;99.90
42141;DHT22;27809;51.864;5.646;2022-09-27T07:37:31;9.80;99.90
42141;DHT22;27809;51.864;5.646;2022-09-27T07:39:56;9.80;99.90
42141;DHT22;27809;51.864;5.646;2022-09-27T07:42:22;9.80;99.90
42141;DHT22;27809;51.864;5.646;2022-09-27T07:44:47;9.80;99.90
42141;DHT22;27809;51.864;5.646;2022-09-27T07:47:13;9.80;99.90
42141;DHT22;27809;51.864;5.646;2022-09-27T07:49:39;9.90;99.90
42141;DHT22;27809;51.864;5.646;2022-09-27T07:52:04;9.90;99.90
42141;DHT22;27809;51.864;5.646;2022-09-27T07:54:30;9.90;99.90
42141;DHT22;27809;51.864;5.646;2022-09-27T07:56:55;10.00;99.90
42141;DHT22;27809;51.864;5.646;2022-09-27T07:59:21;9.90;99.90
42141;DHT22;27809;51.864;5.646;2022-09-27T08:01:46;10.00;99.90
42141;DHT22;27809;51.864;5.646;2022-09-27T08:04:12;10.00;99.90
42141;DHT22;27809;51.864;5.646;2022-09-27T08:06:37;9.90;99.90
42141;DHT22;27809;51.864;5.646;2022-09-27T08:09:06;10.00;99.90
42141;DHT22;27809;51.864;5.646;2022-09-27T08:11:33;9.90;99.90
42141;DHT22;27809;51.864;5.646;2022-09-27T08:13:59;9.90;99.90
42141;DHT22;27809;51.864;5.646;2022-09-27T08:16:25;9.90;99.90
42141;DHT22;27809;51.864;5.646;2022-09-27T08:18:52;9.90;99.90
42141;DHT22;27809;51.864;5.646;2022-09-27T08:21:17;9.90;99.90
42141;DHT22;27809;51.864;5.646;2022-09-27T08:23:43;10.00;99.90
42141;DHT22;27809;51.864;5.646;2022-09-27T08:26:08;10.10;99.90
42141;DHT22;27809;51.864;5.646;2022-09-27T08:28:34;10.00;99.90
42141;DHT22;27809;51.864;5.646;2022-09-27T08:30:59;10.10;99.90
42141;DHT22;27809;51.864;5.646;2022-09-27T08:33:25;10.10;99.90
42141;DHT22;27809;51.864;5.646;2022-09-27T08:35:51;10.10;99.90
42141;DHT22;27809;51.864;5.646;2022-09-27T08:38:16;10.00;99.90
42141;DHT22;27809;51.864;5.646;2022-09-27T08:40:48;10.10;99.90
42141;DHT22;27809;51.864;5.646;2022-09-27T08:48:31;10.10;99.90
42141;DHT22;27809;51.864;5.646;2022-09-27T08:51:00;10.20;99.90
42141;DHT22;27809;51.864;5.646;2022-09-27T08:53:35;10.20;99.90
42141;DHT22;27809;51.864;5.646;2022-09-27T08:56:02;10.20;99.90
42141;DHT22;27809;51.864;5.646;2022-09-27T08:58:33;10.30;99.90
42141;DHT22;27809;51.864;5.646;2022-09-27T09:01:05;10.30;99.90
42141;DHT22;27809;51.864;5.646;2022-09-27T09:03:34;10.30;99.90
42141;DHT22;27809;51.864;5.646;2022-09-27T09:23:25;15.80;95.30
42141;DHT22;27809;51.864;5.646;2022-09-27T09:26:08;11.80;99.90
42141;DHT22;27809;51.864;5.646;2022-09-27T09:28:56;11.00;99.90
42141;DHT22;27809;51.864;5.646;2022-09-27T09:32:04;10.70;99.90
42141;DHT22;27809;51.864;5.646;2022-09-27T09:34:37;10.50;99.90
42141;DHT22;27809;51.864;5.646;2022-09-27T09:37:20;10.30;99.90
42141;DHT22;27809;51.864;5.646;2022-09-27T09:39:58;10.40;99.90
42141;DHT22;27809;51.864;5.646;2022-09-27T09:42:37;10.50;99.90
42141;DHT22;27809;51.864;5.646;2022-09-27T09:48:02;10.60;99.90
42141;DHT22;27809;51.864;5.646;2022-09-27T09:50:41;10.60;99.90
42141;DHT22;27809;51.864;5.646;2022-09-27T09:55:59;10.60;99.90
42141;DHT22;27809;51.864;5.646;2022-09-27T09:58:27;10.40;99.90
42141;DHT22;27809;51.864;5.646;2022-09-27T10:00:58;10.40;99.90
42141;DHT22;27809;51.864;5.646;2022-09-27T10:03:25;10.40;99.90
42141;DHT22;27809;51.864;5.646;2022-09-27T10:05:51;10.50;99.90
42141;DHT22;27809;51.864;5.646;2022-09-27T10:08:18;10.40;99.90
42141;DHT22;27809;51.864;5.646;2022-09-27T10:10:45;10.40;99.90
42141;DHT22;27809;51.864;5.646;2022-09-27T10:13:19;10.30;99.90
42141;DHT22;27809;51.864;5.646;2022-09-27T10:15:53;10.20;99.90
42141;DHT22;27809;51.864;5.646;2022-09-27T10:18:21;10.20;99.90
42141;DHT22;27809;51.864;5.646;2022-09-27T10:20:56;10.30;99.90
42141;DHT22;27809;51.864;5.646;2022-09-27T10:23:23;10.20;99.90
42141;DHT22;27809;51.864;5.646;2022-09-27T10:25:59;10.20;99.90
42141;DHT22;27809;51.864;5.646;2022-09-27T10:28:42;10.30;99.90
42141;DHT22;27809;51.864;5.646;2022-09-27T10:31:16;10.40;99.90
42141;DHT22;27809;51.864;5.646;2022-09-27T10:33:53;10.50;99.90
42141;DHT22;27809;51.864;5.646;2022-09-27T10:36:28;10.40;99.90
42141;DHT22;27809;51.864;5.646;2022-09-27T10:38:59;10.50;99.90
42141;DHT22;27809;51.864;5.646;2022-09-27T10:41:34;10.60;99.90
42141;DHT22;27809;51.864;5.646;2022-09-27T10:44:28;10.60;99.90
42141;DHT22;27809;51.864;5.646;2022-09-27T10:47:21;10.60;99.90
42141;DHT22;27809;51.864;5.646;2022-09-27T10:49:48;10.50;99.90
42141;DHT22;27809;51.864;5.646;2022-09-27T10:52:22;10.60;99.90
42141;DHT22;27809;51.864;5.646;2022-09-27T10:54:59;10.60;99.90
42141;DHT22;27809;51.864;5.646;2022-09-27T10:57:27;10.50;99.90
42141;DHT22;27809;51.864;5.646;2022-09-27T10:59:59;10.70;99.90
42141;DHT22;27809;51.864;5.646;2022-09-27T11:02:35;10.80;99.90
42141;DHT22;27809;51.864;5.646;2022-09-27T11:07:50;10.80;99.90
42141;DHT22;27809;51.864;5.646;2022-09-27T11:10:32;10.80;99.90
42141;DHT22;27809;51.864;5.646;2022-09-27T11:13:11;10.90;99.90
42141;DHT22;27809;51.864;5.646;2022-09-27T11:18:29;11.00;99.90
42141;DHT22;27809;51.864;5.646;2022-09-27T11:26:50;11.10;99.90
42141;DHT22;27809;51.864;5.646;2022-09-27T11:29:37;11.00;99.90
42141;DHT22;27809;51.864;5.646;2022-09-27T11:46:33;10.80;99.90
42141;DHT22;27809;51.864;5.646;2022-09-27T11:57:26;10.10;99.90
42141;DHT22;27809;51.864;5.646;2022-09-27T12:00:03;10.00;99.90
42141;DHT22;27809;51.864;5.646;2022-09-27T12:10:31;9.90;99.90
42141;DHT22;27809;51.864;5.646;2022-09-27T12:12:57;9.80;99.90
42141;DHT22;27809;51.864;5.646;2022-09-27T12:15:29;9.90;99.90
42141;DHT22;27809;51.864;5.646;2022-09-27T12:20:47;9.90;99.90
42141;DHT22;27809;51.864;5.646;2022-09-27T12:23:25;10.00;99.90
42141;DHT22;27809;51.864;5.646;2022-09-27T12:25:58;9.90;99.90
42141;DHT22;27809;51.864;5.646;2022-09-27T12:28:48;10.00;99.90
42141;DHT22;27809;51.864;5.646;2022-09-27T12:33:59;10.00;99.90
42141;DHT22;27809;51.864;5.646;2022-09-27T12:36:33;10.00;99.90
42141;DHT22;27809;51.864;5.646;2022-09-27T12:42:00;9.90;99.90
42141;DHT22;27809;51.864;5.646;2022-09-27T12:44:29;9.90;99.90
42141;DHT22;27809;51.864;5.646;2022-09-27T12:47:28;9.80;99.90
42141;DHT22;27809;51.864;5.646;2022-09-27T12:50:10;9.80;99.90
42141;DHT22;27809;51.864;5.646;2022-09-27T12:52:44;9.90;99.90
42141;DHT22;27809;51.864;5.646;2022-09-27T13:12:19;10.10;99.90
42141;DHT22;27809;51.864;5.646;2022-09-27T13:14:56;10.30;99.90
42141;DHT22;27809;51.864;5.646;2022-09-27T13:22:53;10.20;99.90
42141;DHT22;27809;51.864;5.646;2022-09-27T13:30:54;10.50;99.90
42141;DHT22;27809;51.864;5.646;2022-09-27T13:33:27;10.40;99.90
42141;DHT22;27809;51.864;5.646;2022-09-27T13:49:37;10.60;99.90
42141;DHT22;27809;51.864;5.646;2022-09-27T13:54:56;10.70;99.90
42141;DHT22;27809;51.864;5.646;2022-09-27T14:00:22;10.60;99.90
42141;DHT22;27809;51.864;5.646;2022-09-27T14:05:25;11.00;99.90
42141;DHT22;27809;51.864;5.646;2022-09-27T14:07:51;11.00;99.90
42141;DHT22;27809;51.864;5.646;2022-09-27T14:10:18;10.90;99.90
42141;DHT22;27809;51.864;5.646;2022-09-27T14:12:47;11.20;99.90
42141;DHT22;27809;51.864;5.646;2022-09-27T14:15:21;11.10;99.90
42141;DHT22;27809;51.864;5.646;2022-09-27T14:17:47;11.10;99.90
42141;DHT22;27809;51.864;5.646;2022-09-27T14:20:33;11.30;99.90
42141;DHT22;27809;51.864;5.646;2022-09-27T14:22:59;11.40;99.90
42141;DHT22;27809;51.864;5.646;2022-09-27T14:25:25;11.40;99.90
42141;DHT22;27809;51.864;5.646;2022-09-27T14:27:51;11.30;99.90
42141;DHT22;27809;51.864;5.646;2022-09-27T14:30:19;11.30;99.90
42141;DHT22;27809;51.864;5.646;2022-09-27T14:32:52;11.30;99.90
42141;DHT22;27809;51.864;5.646;2022-09-27T14:35:28;11.30;99.90
42141;DHT22;27809;51.864;5.646;2022-09-27T14:38:20;11.40;99.90
42141;DHT22;27809;51.864;5.646;2022-09-27T14:43:19;11.30;99.90
42141;DHT22;27809;51.864;5.646;2022-09-27T14:45:50;11.30;99.90
42141;DHT22;27809;51.864;5.646;2022-09-27T14:48:31;11.40;99.90
42141;DHT22;27809;51.864;5.646;2022-09-27T14:51:01;11.40;99.90
42141;DHT22;27809;51.864;5.646;2022-09-27T14:56:54;11.10;99.90
42141;DHT22;27809;51.864;5.646;2022-09-27T14:59:25;11.00;99.90
42141;DHT22;27809;51.864;5.646;2022-09-27T15:01:56;11.00;99.90
42141;DHT22;27809;51.864;5.646;2022-09-27T15:04:24;11.00;99.90
42141;DHT22;27809;51.864;5.646;2022-09-27T15:06:51;11.00;99.90
42141;DHT22;27809;51.864;5.646;2022-09-27T15:09:17;11.00;99.90
42141;DHT22;27809;51.864;5.646;2022-09-27T15:11:45;10.90;99.90
42141;DHT22;27809;51.864;5.646;2022-09-27T15:14:16;11.00;99.90
42141;DHT22;27809;51.864;5.646;2022-09-27T15:16:46;11.00;99.90
42141;DHT22;27809;51.864;5.646;2022-09-27T15:19:23;11.10;99.90
42141;DHT22;27809;51.864;5.646;2022-09-27T15:21:49;11.10;99.90
42141;DHT22;27809;51.864;5.646;2022-09-27T15:24:34;11.10;99.90
42141;DHT22;27809;51.864;5.646;2022-09-27T15:27:00;11.10;99.90
42141;DHT22;27809;51.864;5.646;2022-09-27T15:29:26;11.20;99.90
42141;DHT22;27809;51.864;5.646;2022-09-27T15:32:04;11.10;99.90
42141;DHT22;27809;51.864;5.646;2022-09-27T15:34:31;11.00;99.90
42141;DHT22;27809;51.864;5.646;2022-09-27T15:37:00;11.10;99.90
42141;DHT22;27809;51.864;5.646;2022-09-27T15:39:38;11.10;99.90
42141;DHT22;27809;51.864;5.646;2022-09-27T15:42:11;13.70;99.90
42141;DHT22;27809;51.864;5.646;2022-09-27T15:52:49;11.10;99.90
42141;DHT22;27809;51.864;5.646;2022-09-27T15:55:26;11.00;99.90
42141;DHT22;27809;51.864;5.646;2022-09-27T15:57:55;10.90;99.90
42141;DHT22;27809;51.864;5.646;2022-09-27T16:00:25;11.00;99.90
42141;DHT22;27809;51.864;5.646;2022-09-27T16:02:51;11.00;99.90
42141;DHT22;27809;51.864;5.646;2022-09-27T16:05:17;10.90;99.90
42141;DHT22;27809;51.864;5.646;2022-09-27T16:07:42;10.80;99.90
42141;DHT22;27809;51.864;5.646;2022-09-27T16:10:17;10.80;99.90
42141;DHT22;27809;51.864;5.646;2022-09-27T16:12:42;11.20;99.90
42141;DHT22;27809;51.864;5.646;2022-09-27T16:15:10;11.20;99.90
42141;DHT22;27809;51.864;5.646;2022-09-27T16:17:35;10.80;99.90
42141;DHT22;27809;51.864;5.646;2022-09-27T16:20:03;10.80;99.90
42141;DHT22;27809;51.864;5.646;2022-09-27T16:22:29;10.60;99.90
42141;DHT22;27809;51.864;5.646;2022-09-27T16:24:55;10.70;99.90
42141;DHT22;27809;51.864;5.646;2022-09-27T16:27:24;10.60;99.90
42141;DHT22;27809;51.864;5.646;2022-09-27T16:29:52;10.40;99.90
42141;DHT22;27809;51.864;5.646;2022-09-27T16:32:17;10.50;99.90
42141;DHT22;27809;51.864;5.646;2022-09-27T16:34:43;10.40;99.90
42141;DHT22;27809;51.864;5.646;2022-09-27T16:37:08;10.30;99.90
42141;DHT22;27809;51.864;5.646;2022-09-27T16:39:35;10.30;99.90
42141;DHT22;27809;51.864;5.646;2022-09-27T16:42:01;10.20;99.90
42141;DHT22;27809;51.864;5.646;2022-09-27T16:44:30;10.20;99.90
42141;DHT22;27809;51.864;5.646;2022-09-27T16:46:58;10.10;99.90
42141;DHT22;27809;51.864;5.646;2022-09-27T16:49:23;10.10;99.90
42141;DHT22;27809;51.864;5.646;2022-09-27T16:52:08;9.90;99.90
42141;DHT22;27809;51.864;5.646;2022-09-27T16:54:34;9.80;99.90
42141;DHT22;27809;51.864;5.646;2022-09-27T16:56:59;9.80;99.90
42141;DHT22;27809;51.864;5.646;2022-09-27T16:59:25;9.90;99.90
42141;DHT22;27809;51.864;5.646;2022-09-27T17:01:52;9.80;99.90
42141;DHT22;27809;51.864;5.646;2022-09-27T17:04:21;9.80;99.90
42141;DHT22;27809;51.864;5.646;2022-09-27T17:06:47;9.70;99.90
42141;DHT22;27809;51.864;5.646;2022-09-27T17:09:12;9.80;99.90
42141;DHT22;27809;51.864;5.646;2022-09-27T17:11:38;9.80;99.90
42141;DHT22;27809;51.864;5.646;2022-09-27T17:14:03;9.80;99.90
42141;DHT22;27809;51.864;5.646;2022-09-27T17:16:29;9.70;99.90
42141;DHT22;27809;51.864;5.646;2022-09-27T17:18:55;9.80;99.90
42141;DHT22;27809;51.864;5.646;2022-09-27T17:21:20;9.80;99.90
42141;DHT22;27809;51.864;5.646;2022-09-27T17:23:46;9.70;99.90
42141;DHT22;27809;51.864;5.646;2022-09-27T17:26:17;9.70;99.90
42141;DHT22;27809;51.864;5.646;2022-09-27T17:28:44;9.60;99.90
42141;DHT22;27809;51.864;5.646;2022-09-27T17:31:11;9.70;99.90
42141;DHT22;27809;51.864;5.646;2022-09-27T17:33:45;9.70;99.90
42141;DHT22;27809;51.864;5.646;2022-09-27T17:36:14;9.70;99.90
42141;DHT22;27809;51.864;5.646;2022-09-27T17:38:42;9.60;99.90
42141;DHT22;27809;51.864;5.646;2022-09-27T17:41:11;9.60;99.90
42141;DHT22;27809;51.864;5.646;2022-09-27T17:43:38;9.50;99.90
42141;DHT22;27809;51.864;5.646;2022-09-27T17:46:08;9.50;99.90
42141;DHT22;27809;51.864;5.646;2022-09-27T17:48:34;9.50;99.90
42141;DHT22;27809;51.864;5.646;2022-09-27T17:51:19;9.50;99.90
42141;DHT22;27809;51.864;5.646;2022-09-27T17:53:45;9.50;99.90
42141;DHT22;27809;51.864;5.646;2022-09-27T17:56:12;9.50;99.90
42141;DHT22;27809;51.864;5.646;2022-09-27T17:58:39;9.50;99.90
42141;DHT22;27809;51.864;5.646;2022-09-27T18:01:09;9.50;99.90
42141;DHT22;27809;51.864;5.646;2022-09-27T18:03:34;9.50;99.90
42141;DHT22;27809;51.864;5.646;2022-09-27T18:06:07;9.40;99.90
42141;DHT22;27809;51.864;5.646;2022-09-27T18:08:33;9.50;99.90
42141;DHT22;27809;51.864;5.646;2022-09-27T18:11:13;9.50;99.90
42141;DHT22;27809;51.864;5.646;2022-09-27T18:13:41;9.40;99.90
42141;DHT22;27809;51.864;5.646;2022-09-27T18:18:37;9.40;99.90
42141;DHT22;27809;51.864;5.646;2022-09-27T18:21:08;9.50;99.90
42141;DHT22;27809;51.864;5.646;2022-09-27T18:23:36;9.40;99.90
42141;DHT22;27809;51.864;5.646;2022-09-27T18:26:03;9.40;99.90
42141;DHT22;27809;51.864;5.646;2022-09-27T18:28:33;9.40;99.90
42141;DHT22;27809;51.864;5.646;2022-09-27T18:31:05;9.40;99.90
42141;DHT22;27809;51.864;5.646;2022-09-27T18:33:32;9.40;99.90
42141;DHT22;27809;51.864;5.646;2022-09-27T18:36:15;9.40;99.90
42141;DHT22;27809;51.864;5.646;2022-09-27T18:38:44;9.40;99.90
42141;DHT22;27809;51.864;5.646;2022-09-27T18:41:12;9.40;99.90
42141;DHT22;27809;51.864;5.646;2022-09-27T18:43:38;9.30;99.90
42141;DHT22;27809;51.864;5.646;2022-09-27T18:46:06;9.30;99.90
42141;DHT22;27809;51.864;5.646;2022-09-27T18:48:33;9.30;99.90
42141;DHT22;27809;51.864;5.646;2022-09-27T18:51:05;9.20;99.90
42141;DHT22;27809;51.864;5.646;2022-09-27T18:53:30;9.30;99.90
42141;DHT22;27809;51.864;5.646;2022-09-27T18:56:05;9.20;99.90
42141;DHT22;27809;51.864;5.646;2022-09-27T18:58:33;9.20;99.90